createdAt,value
2023-04-08T00:00:54.862Z,73.50
2023-04-08T00:01:52.439Z,73.67
2023-04-08T00:02:49.387Z,73.29
2023-04-08T00:03:46.328Z,73.32
2023-04-08T00:04:43.333Z,73.31
2023-04-08T00:05:40.005Z,73.30
2023-04-08T00:06:37.310Z,73.74
2023-04-08T00:07:34.194Z,73.82
2023-04-08T00:08:31.067Z,74.34
2023-04-08T00:09:27.709Z,74.52
2023-04-08T00:10:26.407Z,75.40
2023-04-08T00:11:23.105Z,75.12
2023-04-08T00:12:19.791Z,76.32
2023-04-08T00:13:16.404Z,76.47
2023-04-08T00:14:13.031Z,76.70
2023-04-08T00:15:10.029Z,75.64
2023-04-08T00:16:06.713Z,75.27
2023-04-08T00:17:03.423Z,76.01
2023-04-08T00:18:00.198Z,75.14
2023-04-08T00:18:57.277Z,74.86
2023-04-08T00:19:55.418Z,74.49
2023-04-08T00:20:52.011Z,75.25
2023-04-08T00:21:48.707Z,75.77
2023-04-08T00:22:45.907Z,75.98
2023-04-08T00:23:42.456Z,76.08
2023-04-08T00:24:40.568Z,76.47
2023-04-08T00:25:37.265Z,76.72
2023-04-08T00:26:33.886Z,76.76
2023-04-08T00:27:30.537Z,76.16
2023-04-08T00:28:27.078Z,75.71
2023-04-08T00:29:23.795Z,75.83
2023-04-08T00:30:20.465Z,75.80
2023-04-08T00:31:17.259Z,75.34
2023-04-08T00:32:13.906Z,75.46
2023-04-08T00:33:10.715Z,75.56
2023-04-08T00:34:07.396Z,75.04
2023-04-08T00:35:04.805Z,75.12
2023-04-08T00:36:01.447Z,74.90
2023-04-08T00:36:58.283Z,74.58
2023-04-08T00:37:54.911Z,74.38
2023-04-08T00:38:51.921Z,75.17
2023-04-08T00:39:48.758Z,76.03
2023-04-08T00:40:45.471Z,76.53
2023-04-08T00:41:42.155Z,77.47
2023-04-08T00:42:39.211Z,77.25
2023-04-08T00:43:35.928Z,76.76
2023-04-08T00:44:32.510Z,76.65
2023-04-08T00:45:29.141Z,76.16
2023-04-08T00:46:26.872Z,76.08
2023-04-08T00:47:24.028Z,76.59
2023-04-08T00:48:20.716Z,76.31
2023-04-08T00:49:17.939Z,76.58
2023-04-08T00:50:14.563Z,75.59
2023-04-08T00:51:11.296Z,75.95
2023-04-08T00:52:07.898Z,75.78
2023-04-08T00:53:04.495Z,74.67
2023-04-08T00:54:01.069Z,75.10
2023-04-08T00:54:57.651Z,74.98
2023-04-08T00:55:54.260Z,74.70
2023-04-08T00:56:51.203Z,74.86
2023-04-08T00:57:48.460Z,74.62
2023-04-08T00:58:45.227Z,73.74
2023-04-08T00:59:42.942Z,73.47
2023-04-08T01:00:43.901Z,73.86
2023-04-08T01:02:10.044Z,73.84
2023-04-08T01:03:36.601Z,76.07
2023-04-08T01:04:38.730Z,77.33
2023-04-08T01:05:54.224Z,75.97
2023-04-08T01:07:08.794Z,75.35
2023-04-08T01:08:08.591Z,74.85
2023-04-08T01:09:06.172Z,76.16
2023-04-08T01:10:07.825Z,76.50
2023-04-08T01:11:08.438Z,76.63
2023-04-08T01:12:08.161Z,76.73
2023-04-08T01:13:10.240Z,77.27
2023-04-08T01:14:10.306Z,78.25
2023-04-08T01:15:08.825Z,78.97
2023-04-08T01:16:06.295Z,77.73
2023-04-08T01:17:04.065Z,77.37
2023-04-08T01:18:02.742Z,76.45
2023-04-08T01:18:59.683Z,75.99
2023-04-08T01:19:59.523Z,75.44
2023-04-08T01:20:56.912Z,75.39
2023-04-08T01:21:59.192Z,74.89
2023-04-08T01:23:01.913Z,75.17
2023-04-08T01:24:18.808Z,75.32
2023-04-08T01:25:19.977Z,74.74
2023-04-08T01:26:23.098Z,75.16
2023-04-08T01:27:19.957Z,74.89
2023-04-08T01:28:19.685Z,74.77
2023-04-08T01:29:17.350Z,74.90
2023-04-08T01:30:16.218Z,75.25
2023-04-08T01:31:12.976Z,74.85
2023-04-08T01:32:11.998Z,74.46
2023-04-08T01:33:12.351Z,74.15
2023-04-08T01:34:11.976Z,73.85
2023-04-08T01:35:09.867Z,73.44
2023-04-08T01:36:08.013Z,73.12
2023-04-08T01:37:06.361Z,73.06
2023-04-08T01:38:03.823Z,73.12
2023-04-08T01:39:03.156Z,73.68
2023-04-08T01:40:01.627Z,73.40
2023-04-08T01:40:58.958Z,73.41
2023-04-08T01:41:57.282Z,73.25
2023-04-08T01:42:59.783Z,73.37
2023-04-08T01:43:56.686Z,73.48
2023-04-08T01:44:56.480Z,74.00
2023-04-08T01:45:58.330Z,73.61
2023-04-08T01:46:56.828Z,73.57
2023-04-08T01:47:53.801Z,73.25
2023-04-08T01:48:51.736Z,72.72
2023-04-08T01:49:50.435Z,71.65
2023-04-08T01:50:47.901Z,71.70
2023-04-08T01:51:46.633Z,72.40
2023-04-08T01:52:45.328Z,72.04
2023-04-08T01:53:42.120Z,71.84
2023-04-08T01:54:38.950Z,72.67
2023-04-08T01:55:36.454Z,72.62
2023-04-08T01:56:39.349Z,72.40
2023-04-08T01:57:38.772Z,72.19
2023-04-08T01:58:39.786Z,72.09
2023-04-08T01:59:40.318Z,72.28
2023-04-08T02:00:39.091Z,72.08
2023-04-08T02:01:36.460Z,72.37
2023-04-08T02:02:35.907Z,72.32
2023-04-08T02:03:35.789Z,71.62
2023-04-08T02:04:34.502Z,71.68
2023-04-08T02:05:31.216Z,71.75
2023-04-08T02:06:29.412Z,71.42
2023-04-08T02:07:26.038Z,71.37
2023-04-08T02:08:22.683Z,70.54
2023-04-08T02:09:19.353Z,71.34
2023-04-08T02:10:16.338Z,69.76
2023-04-08T02:11:13.196Z,70.49
2023-04-08T02:12:09.910Z,69.34
2023-04-08T02:13:07.493Z,69.27
2023-04-08T02:14:04.338Z,69.55
2023-04-08T02:15:01.255Z,70.80
2023-04-08T02:16:04.862Z,71.12
2023-04-08T02:17:04.268Z,70.70
2023-04-08T02:18:09.087Z,71.11
2023-04-08T02:19:16.728Z,70.00
2023-04-08T02:20:50.355Z,70.35
2023-04-08T02:21:52.558Z,70.90
2023-04-08T02:23:02.394Z,71.09
2023-04-08T02:24:01.233Z,71.51
2023-04-08T02:25:01.282Z,71.63
2023-04-08T02:25:58.438Z,71.87
2023-04-08T02:26:56.857Z,71.75
2023-04-08T02:27:56.598Z,72.25
2023-04-08T02:28:55.409Z,72.89
2023-04-08T02:29:56.167Z,71.69
2023-04-08T02:30:53.482Z,71.84
2023-04-08T02:31:51.323Z,71.89
2023-04-08T02:32:49.189Z,71.61
2023-04-08T02:33:46.721Z,71.95
2023-04-08T02:34:44.357Z,72.14
2023-04-08T02:35:41.941Z,72.51
2023-04-08T02:36:41.022Z,72.46
2023-04-08T02:37:38.039Z,72.78
2023-04-08T02:38:34.647Z,72.69
2023-04-08T02:39:34.859Z,72.69
2023-04-08T02:40:33.606Z,72.20
2023-04-08T02:41:31.444Z,72.60
2023-04-08T02:42:28.042Z,74.48
2023-04-08T02:43:31.774Z,74.31
2023-04-08T02:44:28.429Z,74.09
2023-04-08T02:45:31.403Z,74.35
2023-04-08T02:46:28.024Z,74.82
2023-04-08T02:47:24.555Z,76.23
2023-04-08T02:48:21.182Z,76.18
2023-04-08T02:49:17.755Z,75.42
2023-04-08T02:50:14.388Z,75.17
2023-04-08T02:51:11.022Z,76.13
2023-04-08T02:52:07.667Z,75.80
2023-04-08T02:53:04.323Z,75.70
2023-04-08T02:54:00.919Z,76.51
2023-04-08T02:54:57.570Z,76.82
2023-04-08T02:55:54.125Z,76.39
2023-04-08T02:56:50.866Z,76.04
2023-04-08T02:57:49.058Z,75.65
2023-04-08T02:58:46.155Z,75.30
2023-04-08T02:59:42.872Z,75.07
2023-04-08T03:00:39.925Z,74.39
2023-04-08T03:01:36.619Z,73.98
2023-04-08T03:02:33.593Z,74.59
2023-04-08T03:03:31.377Z,74.41
2023-04-08T03:04:28.030Z,75.05
2023-04-08T03:05:26.667Z,74.20
2023-04-08T03:06:23.277Z,74.12
2023-04-08T03:07:19.867Z,74.41
2023-04-08T03:08:16.466Z,75.11
2023-04-08T03:09:13.087Z,75.24
2023-04-08T03:10:09.908Z,75.32
2023-04-08T03:11:06.627Z,75.13
2023-04-08T03:12:03.262Z,75.22
2023-04-08T03:12:59.917Z,75.98
2023-04-08T03:13:56.666Z,75.94
2023-04-08T03:14:53.652Z,76.32
2023-04-08T03:15:50.275Z,76.89
2023-04-08T03:16:46.982Z,76.58
2023-04-08T03:17:43.893Z,76.19
2023-04-08T03:18:40.596Z,75.67
2023-04-08T03:19:37.149Z,75.63
2023-04-08T03:20:33.825Z,76.71
2023-04-08T03:21:32.487Z,77.92
2023-04-08T03:22:29.089Z,77.46
2023-04-08T03:23:25.829Z,76.66
2023-04-08T03:24:22.460Z,74.16
2023-04-08T03:25:19.163Z,74.46
2023-04-08T03:26:15.875Z,74.82
2023-04-08T03:27:12.784Z,73.49
2023-04-08T03:28:09.380Z,72.57
2023-04-08T03:29:07.004Z,72.35
2023-04-08T03:30:04.438Z,72.05
2023-04-08T03:31:01.420Z,72.93
2023-04-08T03:31:58.128Z,73.24
2023-04-08T03:32:55.072Z,74.45
2023-04-08T03:33:51.906Z,73.97
2023-04-08T03:34:53.666Z,75.04
2023-04-08T03:35:50.625Z,74.86
2023-04-08T03:36:47.394Z,74.98
2023-04-08T03:37:44.007Z,74.92
2023-04-08T03:38:40.827Z,74.65
2023-04-08T03:39:38.010Z,73.60
2023-04-08T03:40:34.679Z,73.68
2023-04-08T03:41:31.364Z,73.62
2023-04-08T03:42:27.910Z,73.57
2023-04-08T03:43:25.580Z,74.18
2023-04-08T03:44:22.248Z,73.35
2023-04-08T03:45:19.192Z,73.22
2023-04-08T03:46:15.972Z,74.12
2023-04-08T03:47:12.617Z,73.71
2023-04-08T03:48:09.332Z,73.67
2023-04-08T03:49:05.922Z,73.73
2023-04-08T03:50:02.539Z,74.34
2023-04-08T03:50:59.172Z,73.95
2023-04-08T03:51:55.827Z,73.53
2023-04-08T03:52:52.397Z,73.94
2023-04-08T03:53:49.332Z,72.99
2023-04-08T03:54:45.908Z,73.04
2023-04-08T03:55:42.518Z,73.77
2023-04-08T03:56:39.231Z,74.25
2023-04-08T03:57:35.915Z,74.54
2023-04-08T03:58:32.575Z,74.54
2023-04-08T03:59:29.358Z,74.82
2023-04-08T04:00:25.987Z,74.74
2023-04-08T04:01:22.572Z,74.33
2023-04-08T04:02:19.249Z,74.37
2023-04-08T04:03:16.258Z,74.63
2023-04-08T04:04:13.533Z,73.88
2023-04-08T04:05:11.231Z,74.00
2023-04-08T04:06:07.998Z,73.61
2023-04-08T04:07:04.553Z,74.05
2023-04-08T04:08:01.253Z,73.50
2023-04-08T04:08:57.865Z,72.59
2023-04-08T04:09:56.945Z,73.98
2023-04-08T04:10:53.621Z,72.64
2023-04-08T04:11:50.443Z,72.63
2023-04-08T04:12:47.775Z,71.36
2023-04-08T04:13:44.446Z,71.54
2023-04-08T04:14:41.113Z,70.83
2023-04-08T04:15:41.417Z,69.97
2023-04-08T04:16:38.135Z,70.56
2023-04-08T04:17:34.760Z,71.31
2023-04-08T04:18:31.433Z,71.60
2023-04-08T04:19:31.997Z,71.38
2023-04-08T04:20:30.355Z,70.94
2023-04-08T04:21:27.310Z,71.91
2023-04-08T04:22:24.208Z,71.58
2023-04-08T04:23:21.354Z,71.37
2023-04-08T04:24:18.097Z,71.42
2023-04-08T04:25:14.680Z,71.36
2023-04-08T04:26:12.036Z,70.93
2023-04-08T04:27:08.669Z,71.12
2023-04-08T04:28:05.566Z,71.87
2023-04-08T04:29:02.095Z,71.85
2023-04-08T04:29:58.698Z,71.58
2023-04-08T04:30:56.550Z,71.93
2023-04-08T04:31:53.486Z,71.76
2023-04-08T04:32:50.094Z,72.16
2023-04-08T04:33:47.424Z,72.14
2023-04-08T04:34:44.787Z,71.87
2023-04-08T04:35:41.492Z,71.85
2023-04-08T04:36:38.153Z,71.51
2023-04-08T04:37:34.887Z,71.64
2023-04-08T04:38:31.670Z,70.98
2023-04-08T04:39:28.266Z,70.71
2023-04-08T04:40:24.937Z,70.96
2023-04-08T04:41:22.012Z,70.69
2023-04-08T04:42:18.608Z,70.96
2023-04-08T04:43:15.394Z,71.24
2023-04-08T04:44:12.151Z,71.86
2023-04-08T04:45:10.120Z,71.73
2023-04-08T04:46:09.083Z,72.17
2023-04-08T04:47:05.813Z,72.78
2023-04-08T04:48:03.783Z,72.98
2023-04-08T04:49:00.464Z,73.88
2023-04-08T04:49:57.013Z,73.39
2023-04-08T04:50:57.921Z,73.27
2023-04-08T04:51:54.579Z,74.51
2023-04-08T04:52:51.412Z,74.71
2023-04-08T04:53:49.992Z,74.71
2023-04-08T04:54:46.572Z,74.31
2023-04-08T04:55:43.129Z,73.39
2023-04-08T04:56:39.780Z,72.88
2023-04-08T04:57:36.339Z,72.75
2023-04-08T04:58:32.936Z,71.06
2023-04-08T04:59:29.549Z,70.82
2023-04-08T05:00:26.147Z,70.76
2023-04-08T05:01:22.799Z,71.30
2023-04-08T05:02:19.505Z,71.12
2023-04-08T05:03:16.782Z,70.31
2023-04-08T05:04:13.597Z,70.62
2023-04-08T05:05:10.650Z,71.70
2023-04-08T05:06:07.333Z,71.73
2023-04-08T05:07:03.910Z,71.36
2023-04-08T05:08:00.554Z,71.54
2023-04-08T05:08:57.137Z,71.17
2023-04-08T05:09:54.686Z,71.53
2023-04-08T05:10:51.451Z,71.33
2023-04-08T05:11:48.076Z,71.18
2023-04-08T05:12:44.715Z,71.62
2023-04-08T05:13:41.777Z,71.63
2023-04-08T05:14:38.417Z,70.70
2023-04-08T05:15:35.059Z,70.73
2023-04-08T05:16:31.897Z,71.00
2023-04-08T05:17:28.582Z,71.06
2023-04-08T05:18:25.294Z,71.22
2023-04-08T05:19:23.405Z,71.37
2023-04-08T05:20:20.085Z,71.77
2023-04-08T05:21:16.664Z,71.24
2023-04-08T05:22:13.371Z,70.69
2023-04-08T05:23:10.033Z,70.37
2023-04-08T05:24:06.996Z,71.25
2023-04-08T05:25:04.692Z,70.48
2023-04-08T05:26:01.471Z,70.60
2023-04-08T05:26:58.059Z,70.94
2023-04-08T05:27:54.811Z,70.64
2023-04-08T05:28:52.081Z,71.15
2023-04-08T05:29:48.891Z,71.73
2023-04-08T05:30:52.463Z,71.84
2023-04-08T05:31:49.439Z,71.17
2023-04-08T05:32:46.469Z,71.18
2023-04-08T05:33:43.268Z,70.97
2023-04-08T05:34:39.872Z,70.74
2023-04-08T05:35:36.547Z,70.36
2023-04-08T05:36:33.098Z,69.96
2023-04-08T05:37:29.957Z,71.01
2023-04-08T05:38:26.626Z,71.60
2023-04-08T05:39:23.242Z,72.18
2023-04-08T05:40:19.953Z,72.25
2023-04-08T05:41:16.530Z,71.40
2023-04-08T05:42:13.993Z,71.63
2023-04-08T05:43:10.664Z,71.65
2023-04-08T05:44:07.842Z,71.54
2023-04-08T05:45:05.548Z,71.23
2023-04-08T05:46:09.705Z,70.67
2023-04-08T05:47:06.409Z,70.79
2023-04-08T05:48:03.108Z,71.12
2023-04-08T05:48:59.698Z,71.08
2023-04-08T05:49:56.438Z,71.59
2023-04-08T05:50:53.003Z,70.94
2023-04-08T05:51:49.618Z,71.15
2023-04-08T05:52:46.344Z,72.33
2023-04-08T05:53:42.959Z,71.44
2023-04-08T05:54:43.460Z,71.84
2023-04-08T05:55:40.904Z,71.43
2023-04-08T05:56:37.472Z,71.80
2023-04-08T05:57:34.160Z,71.11
2023-04-08T05:58:30.733Z,70.53
2023-04-08T05:59:27.275Z,69.48
2023-04-08T06:00:23.965Z,69.77
2023-04-08T06:01:20.637Z,69.90
2023-04-08T06:02:17.325Z,70.99
2023-04-08T06:03:14.329Z,70.66
2023-04-08T06:04:11.424Z,69.00
2023-04-08T06:05:08.507Z,68.79
2023-04-08T06:06:11.445Z,69.13
2023-04-08T06:07:08.537Z,69.62
2023-04-08T06:08:05.359Z,69.55
2023-04-08T06:09:02.067Z,69.90
2023-04-08T06:09:58.716Z,69.42
2023-04-08T06:10:55.644Z,70.35
2023-04-08T06:11:52.605Z,69.70
2023-04-08T06:12:49.237Z,69.76
2023-04-08T06:13:45.929Z,69.65
2023-04-08T06:14:42.641Z,69.09
2023-04-08T06:15:39.221Z,69.07
2023-04-08T06:16:35.849Z,69.18
2023-04-08T06:17:32.714Z,69.14
2023-04-08T06:18:29.297Z,69.14
2023-04-08T06:19:25.988Z,69.04
2023-04-08T06:20:22.737Z,67.74
2023-04-08T06:21:19.342Z,67.40
2023-04-08T06:22:16.125Z,67.33
2023-04-08T06:23:13.103Z,67.93
2023-04-08T06:24:09.642Z,68.19
2023-04-08T06:25:07.173Z,68.51
2023-04-08T06:26:04.854Z,69.54
2023-04-08T06:27:01.545Z,70.05
2023-04-08T06:27:58.290Z,69.61
2023-04-08T06:28:54.990Z,69.26
2023-04-08T06:29:52.190Z,68.67
2023-04-08T06:30:48.729Z,68.12
2023-04-08T06:31:45.783Z,67.99
2023-04-08T06:32:42.504Z,68.44
2023-04-08T06:33:39.239Z,68.81
2023-04-08T06:34:35.845Z,68.88
2023-04-08T06:35:32.774Z,67.84
2023-04-08T06:36:29.512Z,68.55
2023-04-08T06:37:26.235Z,68.84
2023-04-08T06:38:22.805Z,67.72
2023-04-08T06:39:21.316Z,66.30
2023-04-08T06:40:18.026Z,66.80
2023-04-08T06:41:14.666Z,67.67
2023-04-08T06:42:11.302Z,68.17
2023-04-08T06:43:08.198Z,68.02
2023-04-08T06:44:04.822Z,66.63
2023-04-08T06:45:01.606Z,67.46
2023-04-08T06:45:58.402Z,67.50
2023-04-08T06:46:55.104Z,67.34
2023-04-08T06:47:51.823Z,67.50
2023-04-08T06:48:48.665Z,65.76
2023-04-08T06:49:46.688Z,66.25
2023-04-08T06:50:44.144Z,67.05
2023-04-08T06:51:40.992Z,67.37
2023-04-08T06:52:37.714Z,66.94
2023-04-08T06:53:34.422Z,66.72
2023-04-08T06:54:31.147Z,66.06
2023-04-08T06:55:27.901Z,65.61
2023-04-08T06:56:26.292Z,65.39
2023-04-08T06:57:23.308Z,65.95
2023-04-08T06:58:19.952Z,64.59
2023-04-08T06:59:16.895Z,64.41
2023-04-08T07:00:13.827Z,65.56
2023-04-08T07:01:10.687Z,66.54
2023-04-08T07:02:07.502Z,67.58
2023-04-08T07:03:04.268Z,67.71
2023-04-08T07:04:02.509Z,67.28
2023-04-08T07:04:59.240Z,67.27
2023-04-08T07:05:55.980Z,67.78
2023-04-08T07:06:52.848Z,68.19
2023-04-08T07:07:49.413Z,67.72
2023-04-08T07:08:46.453Z,67.47
2023-04-08T07:09:45.942Z,67.69
2023-04-08T07:10:42.607Z,67.87
2023-04-08T07:11:39.304Z,68.14
2023-04-08T07:12:35.867Z,68.68
2023-04-08T07:13:32.526Z,68.13
2023-04-08T07:14:30.280Z,67.68
2023-04-08T07:15:26.983Z,68.29
2023-04-08T07:16:23.567Z,67.94
2023-04-08T07:17:20.357Z,67.47
2023-04-08T07:18:17.232Z,67.97
2023-04-08T07:19:13.867Z,67.37
2023-04-08T07:20:10.902Z,67.55
2023-04-08T07:21:07.533Z,67.16
2023-04-08T07:22:04.275Z,66.89
2023-04-08T07:23:01.009Z,67.95
2023-04-08T07:23:57.634Z,68.06
2023-04-08T07:24:54.340Z,66.96
2023-04-08T07:25:50.914Z,67.06
2023-04-08T07:26:47.892Z,67.99
2023-04-08T07:27:44.688Z,65.45
2023-04-08T07:28:41.773Z,65.72
2023-04-08T07:29:38.440Z,66.06
2023-04-08T07:30:35.209Z,66.56
2023-04-08T07:31:32.058Z,65.53
2023-04-08T07:32:28.849Z,65.09
2023-04-08T07:33:26.553Z,65.29
2023-04-08T07:34:23.183Z,65.91
2023-04-08T07:35:24.464Z,65.75
2023-04-08T07:36:22.160Z,66.08
2023-04-08T07:37:19.208Z,64.99
2023-04-08T07:38:16.641Z,64.83
2023-04-08T07:39:13.284Z,64.84
2023-04-08T07:40:10.357Z,63.40
2023-04-08T07:41:07.316Z,63.75
2023-04-08T07:42:03.887Z,63.00
2023-04-08T07:43:00.712Z,63.92
2023-04-08T07:43:57.288Z,64.65
2023-04-08T07:44:54.038Z,64.27
2023-04-08T07:45:51.345Z,64.59
2023-04-08T07:46:51.988Z,64.08
2023-04-08T07:47:48.659Z,64.02
2023-04-08T07:48:45.378Z,64.48
2023-04-08T07:49:41.977Z,64.22
2023-04-08T07:51:09.455Z,63.01
2023-04-08T07:51:55.834Z,64.33
2023-04-08T07:52:53.405Z,63.89
2023-04-08T07:53:50.055Z,64.06
2023-04-08T07:54:46.645Z,63.59
2023-04-08T07:55:43.524Z,63.25
2023-04-08T07:56:40.520Z,61.97
2023-04-08T07:57:37.307Z,62.17
2023-04-08T07:58:34.029Z,61.79
2023-04-08T07:59:32.097Z,61.71
2023-04-08T08:00:30.781Z,62.37
2023-04-08T08:01:31.409Z,62.85
2023-04-08T08:02:28.294Z,62.96
2023-04-08T08:03:25.621Z,63.52
2023-04-08T08:04:25.809Z,63.93
2023-04-08T08:05:22.826Z,64.26
2023-04-08T08:06:19.522Z,62.97
2023-04-08T08:07:16.401Z,62.26
2023-04-08T08:08:13.038Z,63.42
2023-04-08T08:09:09.990Z,61.81
2023-04-08T08:10:07.260Z,61.87
2023-04-08T08:11:04.002Z,62.41
2023-04-08T08:12:00.787Z,62.54
2023-04-08T08:12:57.424Z,62.50
2023-04-08T08:13:54.194Z,62.87
2023-04-08T08:14:51.744Z,63.76
2023-04-08T08:15:53.574Z,64.27
2023-04-08T08:16:50.234Z,63.82
2023-04-08T08:17:46.898Z,64.76
2023-04-08T08:18:43.624Z,65.48
2023-04-08T08:19:40.206Z,64.45
2023-04-08T08:20:36.822Z,63.51
2023-04-08T08:21:33.548Z,63.20
2023-04-08T08:22:30.386Z,62.55
2023-04-08T08:23:27.224Z,63.36
2023-04-08T08:24:23.832Z,62.76
2023-04-08T08:25:20.661Z,63.04
2023-04-08T08:26:17.309Z,64.21
2023-04-08T08:27:13.932Z,63.57
2023-04-08T08:28:10.514Z,63.75
2023-04-08T08:29:08.934Z,64.67
2023-04-08T08:30:06.936Z,64.87
2023-04-08T08:31:03.714Z,63.70
2023-04-08T08:32:00.535Z,63.47
2023-04-08T08:32:59.242Z,62.76
2023-04-08T08:33:56.150Z,61.72
2023-04-08T08:34:52.738Z,63.17
2023-04-08T08:35:49.333Z,63.90
2023-04-08T08:36:46.030Z,63.19
2023-04-08T08:37:43.082Z,61.55
2023-04-08T08:38:39.830Z,61.42
2023-04-08T08:39:36.728Z,61.64
2023-04-08T08:40:33.422Z,61.76
2023-04-08T08:41:38.823Z,62.44
2023-04-08T08:42:35.472Z,61.17
2023-04-08T08:43:35.742Z,62.34
2023-04-08T08:44:32.701Z,63.35
2023-04-08T08:45:29.670Z,63.43
2023-04-08T08:46:26.279Z,63.04
2023-04-08T08:47:22.985Z,61.61
2023-04-08T08:48:19.858Z,60.69
2023-04-08T08:49:16.460Z,61.34
2023-04-08T08:50:13.170Z,61.85
2023-04-08T08:51:11.037Z,62.51
2023-04-08T08:52:07.787Z,63.89
2023-04-08T08:53:04.431Z,61.87
2023-04-08T08:54:04.594Z,62.08
2023-04-08T08:55:01.459Z,61.63
2023-04-08T08:56:57.494Z,63.22
2023-04-08T08:57:54.178Z,63.66
2023-04-08T08:58:50.736Z,64.44
2023-04-08T08:59:50.771Z,62.75
2023-04-08T09:00:47.576Z,63.42
2023-04-08T09:01:44.429Z,62.55
2023-04-08T09:02:41.397Z,62.29
2023-04-08T09:03:38.331Z,62.32
2023-04-08T09:04:35.452Z,63.65
2023-04-08T09:05:48.360Z,63.84
2023-04-08T09:06:47.052Z,62.84
2023-04-08T09:07:44.741Z,61.74
2023-04-08T09:08:42.207Z,63.08
2023-04-08T09:09:52.111Z,62.78
2023-04-08T09:10:48.700Z,63.18
2023-04-08T09:11:47.214Z,63.46
2023-04-08T09:12:56.550Z,62.64
2023-04-08T09:13:53.331Z,63.29
2023-04-08T09:14:50.393Z,62.90
2023-04-08T09:16:18.337Z,63.38
2023-04-08T09:17:16.405Z,62.51
2023-04-08T09:18:23.360Z,62.17
2023-04-08T09:19:21.614Z,62.19
2023-04-08T09:20:18.151Z,61.51
2023-04-08T09:21:19.383Z,60.95
2023-04-08T09:22:16.582Z,59.94
2023-04-08T09:23:13.150Z,60.42
2023-04-08T09:24:26.918Z,60.22
2023-04-08T09:25:33.861Z,61.49
2023-04-08T09:26:30.555Z,61.75
2023-04-08T09:27:35.582Z,60.95
2023-04-08T09:28:32.494Z,60.80
2023-04-08T09:29:33.360Z,60.90
2023-04-08T09:30:32.539Z,59.89
2023-04-08T09:31:31.414Z,59.71
2023-04-08T09:32:47.776Z,58.29
2023-04-08T09:33:44.485Z,57.51
2023-04-08T09:34:41.262Z,56.85
2023-04-08T09:35:38.798Z,56.04
2023-04-08T09:36:35.471Z,57.22
2023-04-08T09:37:32.517Z,57.61
2023-04-08T09:38:29.152Z,59.10
2023-04-08T09:39:25.868Z,59.11
2023-04-08T09:40:25.019Z,59.77
2023-04-08T09:41:24.351Z,59.52
2023-04-08T09:42:22.223Z,60.04
2023-04-08T09:43:24.166Z,59.66
2023-04-08T09:44:21.840Z,59.48
2023-04-08T09:45:19.314Z,57.91
2023-04-08T09:46:18.749Z,57.79
2023-04-08T09:47:29.188Z,56.80
2023-04-08T09:48:32.965Z,57.13
2023-04-08T09:49:46.417Z,56.83
2023-04-08T09:50:53.506Z,56.08
2023-04-08T09:52:00.755Z,57.10
2023-04-08T09:53:02.190Z,56.95
2023-04-08T09:54:06.820Z,56.05
2023-04-08T09:55:05.965Z,53.83
2023-04-08T09:56:08.200Z,54.13
2023-04-08T09:57:10.068Z,55.44
2023-04-08T09:58:19.102Z,55.70
2023-04-08T09:59:18.645Z,55.24
2023-04-08T10:00:17.049Z,52.98
2023-04-08T10:01:21.423Z,53.00
2023-04-08T10:02:28.773Z,51.48
2023-04-08T10:03:40.488Z,52.59
2023-04-08T10:04:41.992Z,50.77
2023-04-08T10:05:41.734Z,51.09
2023-04-08T10:06:39.683Z,51.17
2023-04-08T10:07:36.472Z,49.97
2023-04-08T10:08:33.491Z,49.74
2023-04-08T10:09:31.039Z,49.16
2023-04-08T10:10:27.929Z,50.21
2023-04-08T10:11:24.740Z,50.49
2023-04-08T10:12:21.718Z,51.17
2023-04-08T10:13:18.877Z,50.88
2023-04-08T10:14:15.485Z,50.44
2023-04-08T10:15:43.209Z,49.95
2023-04-08T10:16:39.918Z,46.95
2023-04-08T10:17:36.916Z,48.60
2023-04-08T10:18:33.711Z,49.96
2023-04-08T10:19:41.445Z,46.94
2023-04-08T10:20:38.086Z,48.20
2023-04-08T10:21:48.673Z,47.92
2023-04-08T10:22:49.088Z,47.45
2023-04-08T10:24:00.197Z,47.85
2023-04-08T10:25:18.408Z,49.04
2023-04-08T10:26:33.655Z,47.28
2023-04-08T10:27:43.318Z,48.93
2023-04-08T10:28:39.950Z,48.43
2023-04-08T10:29:36.688Z,49.21
2023-04-08T10:30:33.419Z,49.42
2023-04-08T10:31:30.178Z,49.44
2023-04-08T10:32:30.354Z,49.24
2023-04-08T10:33:29.801Z,47.82
2023-04-08T10:34:27.601Z,46.41
2023-04-08T10:35:31.426Z,47.83
2023-04-08T10:36:28.202Z,47.98
2023-04-08T10:37:24.907Z,48.26
2023-04-08T10:38:22.253Z,47.36
2023-04-08T10:39:19.519Z,46.27
2023-04-08T10:40:22.117Z,44.01
2023-04-08T10:41:24.303Z,45.21
2023-04-08T10:42:27.422Z,43.01
2023-04-08T10:43:24.284Z,43.16
2023-04-08T10:44:20.880Z,45.63
2023-04-08T10:45:18.169Z,43.64
2023-04-08T10:46:14.790Z,44.41
2023-04-08T10:47:12.761Z,45.52
2023-04-08T10:48:18.185Z,45.99
2023-04-08T10:49:17.572Z,42.49
2023-04-08T10:50:19.265Z,41.98
2023-04-08T10:51:16.829Z,44.42
2023-04-08T10:52:14.984Z,41.67
2023-04-08T10:53:11.810Z,41.46
2023-04-08T10:54:09.994Z,42.01
2023-04-08T10:55:07.543Z,41.45
2023-04-08T10:56:06.286Z,41.31
2023-04-08T10:57:03.099Z,40.89
2023-04-08T10:58:09.524Z,39.67
2023-04-08T10:59:06.410Z,41.70
2023-04-08T11:00:05.829Z,42.64
2023-04-08T11:01:07.106Z,43.87
2023-04-08T11:02:04.059Z,42.41
2023-04-08T11:03:05.179Z,42.42
2023-04-08T11:04:02.501Z,41.76
2023-04-08T11:04:59.222Z,42.67
2023-04-08T11:05:58.014Z,44.12
2023-04-08T11:06:54.627Z,42.61
2023-04-08T11:07:52.683Z,39.74
2023-04-08T11:08:49.336Z,40.83
2023-04-08T11:09:45.952Z,39.74
2023-04-08T11:10:42.772Z,41.90
2023-04-08T11:11:42.688Z,39.43
2023-04-08T11:12:40.190Z,40.70
2023-04-08T11:13:39.330Z,41.00
2023-04-08T11:14:38.414Z,42.01
2023-04-08T11:15:36.498Z,41.55
2023-04-08T11:16:35.083Z,43.03
2023-04-08T11:17:35.052Z,43.34
2023-04-08T11:18:32.358Z,43.60
2023-04-08T11:19:29.688Z,42.67
2023-04-08T11:20:26.490Z,43.08
2023-04-08T11:21:29.585Z,42.20
2023-04-08T11:22:27.342Z,40.93
2023-04-08T11:23:27.409Z,41.12
2023-04-08T11:24:24.210Z,41.61
2023-04-08T11:25:21.880Z,41.97
2023-04-08T11:26:20.111Z,42.06
2023-04-08T11:27:17.057Z,42.08
2023-04-08T11:28:14.545Z,41.85
2023-04-08T11:29:14.937Z,40.60
2023-04-08T11:30:12.189Z,39.95
2023-04-08T11:31:09.662Z,39.99
2023-04-08T11:32:06.429Z,40.19
2023-04-08T11:33:03.066Z,40.50
2023-04-08T11:33:59.687Z,40.74
2023-04-08T11:34:56.238Z,39.43
2023-04-08T11:35:53.197Z,40.35
2023-04-08T11:36:50.882Z,40.55
2023-04-08T11:37:49.714Z,40.72
2023-04-08T11:38:48.040Z,39.66
2023-04-08T11:39:45.394Z,41.30
2023-04-08T11:40:53.168Z,41.55
2023-04-08T11:41:50.150Z,40.97
2023-04-08T11:42:47.232Z,41.01
2023-04-08T11:43:54.444Z,40.97
2023-04-08T11:44:51.277Z,40.02
2023-04-08T11:45:47.953Z,40.83
2023-04-08T11:46:55.501Z,38.68
2023-04-08T11:47:52.980Z,39.79
2023-04-08T11:49:00.809Z,40.62
2023-04-08T11:49:57.862Z,40.30
2023-04-08T11:51:05.781Z,39.61
2023-04-08T11:52:02.414Z,37.72
2023-04-08T11:52:59.680Z,39.86
2023-04-08T11:53:56.976Z,41.53
2023-04-08T11:54:55.687Z,42.31
2023-04-08T11:55:52.682Z,41.46
2023-04-08T11:56:49.326Z,42.35
2023-04-08T11:57:46.486Z,42.46
2023-04-08T11:58:43.104Z,42.71
2023-04-08T11:59:39.709Z,41.02
2023-04-08T12:00:37.273Z,40.60
2023-04-08T12:01:33.893Z,40.90
2023-04-08T12:02:30.537Z,40.42
2023-04-08T12:03:27.416Z,41.40
2023-04-08T12:04:24.441Z,41.39
2023-04-08T12:05:22.677Z,41.75
2023-04-08T12:06:19.418Z,41.97
2023-04-08T12:07:16.049Z,41.44
2023-04-08T12:08:12.672Z,41.33
2023-04-08T12:09:09.437Z,41.97
2023-04-08T12:10:06.871Z,40.79
2023-04-08T12:11:13.188Z,41.96
2023-04-08T12:12:15.840Z,40.42
2023-04-08T12:13:12.387Z,41.11
2023-04-08T12:14:09.747Z,41.58
2023-04-08T12:15:08.015Z,41.37
2023-04-08T12:16:04.839Z,41.17
2023-04-08T12:17:01.427Z,42.50
2023-04-08T12:17:58.032Z,41.28
2023-04-08T12:18:54.740Z,41.81
2023-04-08T12:19:51.606Z,42.03
2023-04-08T12:20:48.297Z,42.11
2023-04-08T12:21:44.905Z,41.20
2023-04-08T12:22:41.616Z,40.33
2023-04-08T12:23:38.288Z,41.46
2023-04-08T12:24:34.906Z,41.34
2023-04-08T12:25:31.565Z,40.90
2023-04-08T12:26:28.277Z,41.36
2023-04-08T12:27:24.999Z,39.69
2023-04-08T12:28:22.353Z,39.32
2023-04-08T12:29:19.273Z,41.30
2023-04-08T12:30:16.598Z,40.15
2023-04-08T12:31:13.423Z,39.29
2023-04-08T12:32:10.053Z,39.18